createdAt,value
2023-01-20T00:02:20.458Z,97805.38
2023-01-20T00:07:25.010Z,97805.38
2023-01-20T00:12:27.703Z,97814.50
2023-01-20T00:17:30.504Z,97815.50
2023-01-20T00:22:37.702Z,97818.25
2023-01-20T00:27:40.451Z,97820.84
2023-01-20T00:32:44.874Z,97830.69
2023-01-20T00:37:49.105Z,97837.69
2023-01-20T00:42:51.888Z,97838.78
2023-01-20T00:47:54.642Z,97845.22
2023-01-20T00:52:58.904Z,97842.41
2023-01-20T00:58:01.738Z,97848.66
2023-01-20T01:03:05.506Z,97867.94
2023-01-20T01:08:09.859Z,97866.50
2023-01-20T01:13:12.873Z,97873.84
2023-01-20T01:18:15.856Z,97881.09
2023-01-20T01:23:20.295Z,97878.75
2023-01-20T01:28:22.978Z,97897.16
2023-01-20T01:33:25.840Z,97896.06
2023-01-20T01:38:30.394Z,97905.88
2023-01-20T01:43:35.529Z,97907.94
2023-01-20T01:48:41.331Z,97914.09
2023-01-20T01:53:53.755Z,97912.03
2023-01-20T01:58:59.384Z,97920.88
2023-01-20T02:04:06.178Z,97926.88
2023-01-20T02:09:10.431Z,97936.94
2023-01-20T02:14:13.250Z,97928.22
2023-01-20T02:19:34.623Z,97931.91
2023-01-20T02:25:15.459Z,97938.06
2023-01-20T02:30:42.311Z,97947.78
2023-01-20T02:35:48.123Z,97945.22
2023-01-20T02:40:59.702Z,97950.41
2023-01-20T02:46:08.571Z,97953.03
2023-01-20T02:51:15.584Z,97945.44
2023-01-20T02:56:20.754Z,97946.34
2023-01-20T03:01:26.394Z,97948.59
2023-01-20T03:06:35.610Z,97951.16
2023-01-20T03:11:44.703Z,97954.94
2023-01-20T03:16:48.881Z,97958.63
2023-01-20T03:21:53.572Z,97968.69
2023-01-20T03:26:56.531Z,97975.78
2023-01-20T03:32:01.158Z,97980.13
2023-01-20T03:37:06.604Z,97983.75
2023-01-20T03:42:13.936Z,97985.72
2023-01-20T03:47:24.667Z,97994.56
2023-01-20T03:52:48.076Z,98000.72
2023-01-20T03:57:58.175Z,98015.53
2023-01-20T04:03:05.204Z,98016.28
2023-01-20T04:08:11.671Z,98017.75
2023-01-20T04:13:15.192Z,98021.03
2023-01-20T04:18:20.043Z,98024.88
2023-01-20T04:23:30.132Z,98021.13
2023-01-20T04:28:33.206Z,98028.56
2023-01-20T04:33:37.886Z,98024.88
2023-01-20T04:38:42.096Z,98025.53
2023-01-20T04:43:45.880Z,98043.59
2023-01-20T04:48:48.622Z,98045.25
2023-01-20T04:53:57.682Z,98046.03
2023-01-20T04:59:00.543Z,98051.78
2023-01-20T05:04:03.268Z,98055.91
2023-01-20T05:09:10.738Z,98066.06
2023-01-20T05:14:13.966Z,98066.59
2023-01-20T05:19:16.813Z,98068.91
2023-01-20T05:24:21.167Z,98072.97
2023-01-20T05:29:23.907Z,98080.69
2023-01-20T05:34:26.692Z,98082.41
2023-01-20T05:39:31.307Z,98094.22
2023-01-20T05:44:35.854Z,98087.06
2023-01-20T05:49:38.978Z,98095.69
2023-01-20T05:54:43.292Z,98106.06
2023-01-20T05:59:47.704Z,98092.94
2023-01-20T06:04:50.727Z,98105.06
2023-01-20T06:09:54.834Z,98118.03
2023-01-20T06:14:57.630Z,98116.41
2023-01-20T06:20:00.535Z,98123.53
2023-01-20T06:25:05.503Z,98124.50
2023-01-20T06:30:09.623Z,98133.00
2023-01-20T06:35:12.783Z,98132.94
2023-01-20T06:40:17.687Z,98144.16
2023-01-20T06:45:20.472Z,98141.38
2023-01-20T06:50:23.235Z,98147.66
2023-01-20T06:55:27.880Z,98147.44
2023-01-20T07:00:31.042Z,98151.75
2023-01-20T07:05:33.839Z,98154.34
2023-01-20T07:10:38.492Z,98157.75
2023-01-20T07:15:41.278Z,98172.31
2023-01-20T07:20:44.317Z,98174.69
2023-01-20T07:25:48.409Z,98184.09
2023-01-20T07:30:51.148Z,98188.09
2023-01-20T07:35:54.599Z,98194.16
2023-01-20T07:41:00.197Z,98191.09
2023-01-20T07:46:05.206Z,98197.44
2023-01-20T07:51:10.330Z,98198.47
2023-01-20T07:56:17.499Z,98203.47
2023-01-20T08:01:22.434Z,98211.19
2023-01-20T08:06:26.972Z,98213.84
2023-01-20T08:11:32.118Z,98235.25
2023-01-20T08:16:35.484Z,98237.44
2023-01-20T08:21:39.131Z,98238.56
2023-01-20T08:26:43.327Z,98247.78
2023-01-20T08:31:46.528Z,98256.38
2023-01-20T08:36:50.184Z,98273.81
2023-01-20T08:41:54.310Z,98272.16
2023-01-20T08:46:59.375Z,98278.34
2023-01-20T08:52:02.120Z,98279.44
2023-01-20T08:57:06.240Z,98275.97
2023-01-20T09:02:10.865Z,98276.97
2023-01-20T09:07:14.102Z,98276.13
2023-01-20T09:12:18.360Z,98283.25
2023-01-20T09:17:21.070Z,98277.25
2023-01-20T09:22:23.754Z,98278.94
2023-01-20T09:27:28.028Z,98292.06
2023-01-20T09:32:31.265Z,98297.91
2023-01-20T09:37:52.189Z,98297.94
2023-01-20T09:43:29.919Z,98296.47
2023-01-20T09:49:01.852Z,98300.53
2023-01-20T09:54:15.391Z,98299.13
2023-01-20T09:59:27.803Z,98295.03
2023-01-20T10:04:37.198Z,98291.06
2023-01-20T10:09:43.864Z,98294.63
2023-01-20T10:14:53.844Z,98285.19
2023-01-20T10:20:05.821Z,98281.78
2023-01-20T10:25:13.870Z,98279.28
2023-01-20T10:30:20.152Z,98279.59
2023-01-20T10:35:26.675Z,98279.53
2023-01-20T10:40:37.394Z,98279.47
2023-01-20T10:45:58.037Z,98282.59
2023-01-20T10:51:07.269Z,98290.22
2023-01-20T10:56:27.515Z,98283.38
2023-01-20T11:01:31.784Z,98293.81
2023-01-20T11:06:34.631Z,98288.56
2023-01-20T11:11:37.999Z,98292.94
2023-01-20T11:16:46.705Z,98284.00
2023-01-20T11:21:50.180Z,98288.72
2023-01-20T11:26:53.031Z,98286.69
2023-01-20T11:31:59.559Z,98294.56
2023-01-20T11:37:18.672Z,98289.59
2023-01-20T11:42:23.884Z,98301.25
2023-01-20T12:00:54.305Z,98304.81
2023-01-20T12:06:03.956Z,98301.41
2023-01-20T12:11:09.331Z,98304.31
2023-01-20T12:16:13.555Z,98298.97
2023-01-20T12:21:18.791Z,98294.09
2023-01-20T12:26:23.656Z,98291.72
2023-01-20T12:31:28.004Z,98295.25
2023-01-20T12:36:52.262Z,98300.34
2023-01-20T12:42:08.090Z,98297.94
2023-01-20T12:47:20.993Z,98293.59
2023-01-20T12:52:39.576Z,98296.41
2023-01-20T12:58:01.345Z,98309.34
2023-01-20T13:03:31.212Z,98305.31
2023-01-20T13:08:43.808Z,98294.78
2023-01-20T13:14:03.190Z,98303.69
2023-01-20T13:19:15.189Z,98291.97
2023-01-20T13:24:29.084Z,98297.16
2023-01-20T13:29:55.232Z,98298.97
2023-01-20T13:35:01.414Z,98310.13
2023-01-20T13:40:39.450Z,98307.94
2023-01-20T13:45:43.083Z,98303.00
2023-01-20T13:50:50.080Z,98315.16
2023-01-20T13:55:53.979Z,98312.34
2023-01-20T14:00:58.855Z,98314.81
2023-01-20T14:06:05.991Z,98323.38
2023-01-20T14:11:12.791Z,98318.78
2023-01-20T14:16:23.730Z,98332.59
2023-01-20T14:21:29.394Z,98326.47
2023-01-20T14:26:33.304Z,98329.78
2023-01-20T14:31:40.427Z,98324.94
2023-01-20T14:36:44.631Z,98335.88
2023-01-20T14:41:49.898Z,98345.13
2023-01-20T14:46:55.015Z,98349.09
2023-01-20T14:51:59.812Z,98358.50
2023-01-20T14:57:13.536Z,98365.72
2023-01-20T15:02:28.751Z,98367.81
2023-01-20T15:07:32.924Z,98381.13
2023-01-20T15:12:40.323Z,98378.88
2023-01-20T15:18:04.507Z,98389.72
2023-01-20T15:23:17.070Z,98397.97
2023-01-20T15:28:30.884Z,98399.00
2023-01-20T15:33:33.606Z,98404.09
2023-01-20T15:38:37.730Z,98400.13
2023-01-20T15:43:41.474Z,98403.13
2023-01-20T15:48:45.324Z,98403.13
2023-01-20T15:53:49.733Z,98405.81
2023-01-20T15:58:53.004Z,98405.03
2023-01-20T16:03:57.544Z,98410.44
2023-01-20T16:09:03.522Z,98419.78
2023-01-20T16:14:06.321Z,98419.06
2023-01-20T16:19:12.636Z,98420.91
2023-01-20T16:24:16.800Z,98435.88
2023-01-20T16:29:19.644Z,98437.72
2023-01-20T16:34:22.405Z,98450.13
2023-01-20T16:39:26.516Z,98452.28
2023-01-20T16:44:29.591Z,98464.56
2023-01-20T16:49:32.330Z,98470.19
2023-01-20T16:54:36.486Z,98472.97
2023-01-20T16:59:39.824Z,98480.78
2023-01-20T17:04:42.699Z,98483.53
2023-01-20T17:09:47.206Z,98478.69
2023-01-20T17:14:50.072Z,98490.47
2023-01-20T17:19:52.849Z,98500.88
2023-01-20T17:24:57.024Z,98509.00
2023-01-20T17:29:59.811Z,98505.31
2023-01-20T17:35:02.795Z,98507.94
2023-01-20T17:40:08.147Z,98518.06
2023-01-20T17:45:11.848Z,98513.34
2023-01-20T17:50:15.308Z,98522.34
2023-01-20T17:55:19.531Z,98531.13
2023-01-20T18:00:23.040Z,98540.75
2023-01-20T18:05:25.832Z,98550.50
2023-01-20T18:10:30.028Z,98552.34
2023-01-20T18:15:32.736Z,98550.88
2023-01-20T18:20:35.595Z,98553.84
2023-01-20T18:25:39.752Z,98562.31
2023-01-20T18:30:42.707Z,98564.09
2023-01-20T18:35:45.644Z,98564.81
2023-01-20T18:40:49.755Z,98568.34
2023-01-20T18:45:53.711Z,98575.41
2023-01-20T18:51:00.674Z,98571.75
2023-01-20T18:56:05.962Z,98580.66
2023-01-20T19:01:11.296Z,98592.66
2023-01-20T19:06:16.124Z,98599.59
2023-01-20T19:11:21.566Z,98598.50
2023-01-20T19:16:27.014Z,98608.13
2023-01-20T19:21:32.512Z,98604.53
2023-01-20T19:26:38.930Z,98607.06
2023-01-20T19:31:42.524Z,98607.97
2023-01-20T19:36:45.427Z,98612.25
2023-01-20T19:41:49.475Z,98621.16
2023-01-20T19:46:52.281Z,98625.34
2023-01-20T19:51:55.016Z,98630.66
2023-01-20T19:56:59.292Z,98632.56
2023-01-20T20:02:02.151Z,98633.13
2023-01-20T20:07:04.926Z,98643.69
2023-01-20T20:12:09.088Z,98647.28
2023-01-20T20:17:11.959Z,98655.00
2023-01-20T20:22:14.751Z,98665.69
2023-01-20T20:27:18.850Z,98668.09
2023-01-20T20:32:21.757Z,98674.50
2023-01-20T20:37:24.521Z,98670.84
2023-01-20T20:42:28.623Z,98671.75
2023-01-20T20:47:33.425Z,98672.56
2023-01-20T20:52:36.322Z,98676.88
2023-01-20T20:57:40.427Z,98683.78
2023-01-20T21:02:43.926Z,98688.09
2023-01-20T21:07:47.560Z,98687.72
2023-01-20T21:12:51.926Z,98694.78
2023-01-20T21:17:54.835Z,98697.59
2023-01-20T21:22:57.895Z,98707.94
2023-01-20T21:28:01.990Z,98716.63
2023-01-20T21:33:05.275Z,98716.66
2023-01-20T21:38:08.151Z,98726.09
2023-01-20T21:43:32.316Z,98733.22
2023-01-20T21:48:52.530Z,98740.91
2023-01-20T21:53:55.319Z,98745.47
2023-01-20T21:58:59.484Z,98751.47
2023-01-20T22:04:02.373Z,98767.22
2023-01-20T22:09:05.224Z,98762.03
2023-01-20T22:14:10.274Z,98769.91
2023-01-20T22:19:13.314Z,98772.63
2023-01-20T22:24:16.293Z,98788.31
2023-01-20T22:29:20.787Z,98794.47
2023-01-20T22:34:24.002Z,98805.97
2023-01-20T22:39:27.616Z,98812.06
2023-01-20T22:44:31.927Z,98817.50
2023-01-20T22:49:34.705Z,98819.25
2023-01-20T22:54:37.461Z,98836.50
2023-01-20T22:59:41.620Z,98837.53
2023-01-20T23:04:44.343Z,98842.03
2023-01-20T23:09:47.286Z,98852.34
2023-01-20T23:15:00.460Z,98851.53
2023-01-20T23:20:03.620Z,98858.53
2023-01-20T23:25:08.458Z,98861.16
2023-01-20T23:30:13.409Z,98866.47
2023-01-20T23:35:16.418Z,98875.94
2023-01-20T23:40:19.554Z,98873.53
2023-01-20T23:45:23.718Z,98881.31
2023-01-20T23:50:26.617Z,98896.31
2023-01-20T23:55:29.416Z,98892.84
